Time;durP1;ratioP1;P1;durP2;ratioP2;P2;SDS_P1;SDS_P2;PMS_P1;PMS_P2;Temp;Humidity;BMP_temperature;BMP_pressure;BME280_temperature;BME280_humidity;BME280_pressure;Samples;Min_cycle;Max_cycle;Signal;HPM_P1;HPM_P2
2021/04/25 00:01:24;;;;;;;6.00;5.40;;;14.10;39.10;;;;;;5027984;28;20053;-81
2021/04/25 00:03:50;;;;;;;6.03;4.78;;;14.00;39.00;;;;;;5010430;28;20516;-80
2021/04/25 00:06:16;;;;;;;5.85;5.22;;;14.00;39.10;;;;;;5027053;28;20554;-81
2021/04/25 00:08:42;;;;;;;6.57;5.22;;;13.90;39.00;;;;;;5027216;28;20021;-80
2021/04/25 00:11:08;;;;;;;9.40;6.03;;;13.90;39.10;;;;;;5027549;28;20393;-80
2021/04/25 00:13:34;;;;;;;7.88;5.82;;;13.80;39.00;;;;;;4993678;28;20044;-81
2021/04/25 00:16:00;;;;;;;7.20;5.82;;;13.80;39.10;;;;;;5026987;28;20492;-81
2021/04/25 00:18:26;;;;;;;6.10;5.25;;;13.70;39.00;;;;;;5026552;28;20029;-82
2021/04/25 00:20:52;;;;;;;8.23;5.88;;;13.70;39.00;;;;;;5009601;28;20160;-81
2021/04/25 00:23:19;;;;;;;10.00;5.47;;;13.60;39.00;;;;;;5009841;28;20028;-82
2021/04/25 00:25:45;;;;;;;5.82;5.07;;;13.60;39.10;;;;;;5026639;28;20041;-80
2021/04/25 00:28:11;;;;;;;7.72;5.82;;;13.60;39.10;;;;;;5024610;28;20121;-81
2021/04/25 00:30:37;;;;;;;6.22;5.53;;;13.50;39.00;;;;;;5027668;28;20037;-81
2021/04/25 00:33:03;;;;;;;6.50;5.30;;;13.50;39.10;;;;;;5009501;28;20487;-82
2021/04/25 00:35:29;;;;;;;7.70;5.72;;;13.40;39.00;;;;;;5009035;28;20033;-82
2021/04/25 00:37:55;;;;;;;7.15;5.85;;;13.40;39.00;;;;;;5027655;28;20030;-82
2021/04/25 00:40:22;;;;;;;6.07;5.45;;;13.30;39.50;;;;;;5009616;28;20543;-81
2021/04/25 00:42:48;;;;;;;7.18;5.70;;;13.30;39.00;;;;;;5025985;28;20035;-82
2021/04/25 00:45:16;;;;;;;8.23;5.47;;;13.30;39.00;;;;;;5027328;28;20037;-81
2021/04/25 00:47:45;;;;;;;5.88;5.28;;;13.20;39.00;;;;;;5009820;28;20026;-81
2021/04/25 00:50:15;;;;;;;8.73;6.00;;;13.20;39.00;;;;;;5009685;28;20037;-80
2021/04/25 00:52:45;;;;;;;6.40;5.70;;;13.20;39.10;;;;;;5026253;28;20087;-80
2021/04/25 00:55:12;;;;;;;6.30;5.50;;;13.10;39.00;;;;;;5006681;28;20044;-80
2021/04/25 00:57:39;;;;;;;7.45;5.55;;;13.10;39.00;;;;;;5027423;28;20030;-80
2021/04/25 01:00:08;;;;;;;6.88;6.18;;;13.10;39.10;;;;;;5027134;28;20033;-81
2021/04/25 01:02:35;;;;;;;6.88;6.18;;;13.00;39.00;;;;;;5026867;28;20040;-81
2021/04/25 01:05:02;;;;;;;6.85;5.55;;;13.00;39.10;;;;;;5027147;28;20060;-82
2021/04/25 01:07:28;;;;;;;6.47;5.45;;;13.00;39.10;;;;;;5009758;28;20036;-82
2021/04/25 01:09:54;;;;;;;9.02;6.18;;;13.00;39.10;;;;;;5018844;28;20030;-80
2021/04/25 01:12:20;;;;;;;8.07;5.70;;;12.90;38.90;;;;;;5003681;28;20097;-82
2021/04/25 01:14:46;;;;;;;7.20;6.05;;;12.90;39.00;;;;;;5009012;28;20025;-82
2021/04/25 01:17:12;;;;;;;8.57;6.50;;;12.80;38.90;;;;;;5008868;28;20050;-81
2021/04/25 01:19:38;;;;;;;10.68;5.93;;;12.80;39.00;;;;;;4992644;28;20040;-82
2021/04/25 01:22:04;;;;;;;7.32;5.70;;;12.80;39.10;;;;;;4993448;28;20439;-83
2021/04/25 01:24:30;;;;;;;8.75;6.30;;;12.80;39.10;;;;;;5026506;28;20434;-83
2021/04/25 01:26:56;;;;;;;7.85;5.80;;;12.80;39.10;;;;;;5026092;28;20068;-82
2021/04/25 01:29:22;;;;;;;6.05;5.43;;;12.70;39.00;;;;;;5026425;28;20041;-82
2021/04/25 01:31:48;;;;;;;7.03;5.68;;;12.60;38.90;;;;;;5018984;28;20499;-82
2021/04/25 01:34:14;;;;;;;7.60;5.85;;;12.60;39.00;;;;;;5016503;28;20032;-82
2021/04/25 01:36:40;;;;;;;6.63;5.70;;;12.60;39.10;;;;;;5028044;28;20033;-83
2021/04/25 01:39:06;;;;;;;7.05;5.22;;;12.50;39.00;;;;;;4990565;28;20026;-83
2021/04/25 01:41:32;;;;;;;8.05;5.95;;;12.50;39.00;;;;;;5027151;28;20040;-82
2021/04/25 01:43:58;;;;;;;6.10;5.50;;;12.50;39.10;;;;;;5028039;28;20033;-83
2021/04/25 01:46:24;;;;;;;7.28;5.75;;;12.40;38.90;;;;;;5009142;28;20029;-83
2021/04/25 01:48:50;;;;;;;7.40;5.93;;;12.40;39.00;;;;;;5031861;28;20045;-82
2021/04/25 01:51:16;;;;;;;6.85;6.15;;;12.40;39.10;;;;;;5030761;28;20071;-82
2021/04/25 01:53:42;;;;;;;7.30;5.57;;;12.30;38.90;;;;;;5032884;28;20033;-81
2021/04/25 01:56:08;;;;;;;8.63;5.78;;;12.30;39.00;;;;;;5032866;28;20338;-82
2021/04/25 01:58:34;;;;;;;8.32;6.30;;;12.30;39.00;;;;;;5032463;28;20025;-81
2021/04/25 02:01:00;;;;;;;8.48;6.18;;;12.30;39.10;;;;;;5033112;28;20025;-81
2021/04/25 02:03:27;;;;;;;9.55;6.45;;;12.20;39.00;;;;;;5034065;28;20033;-82
2021/04/25 02:05:53;;;;;;;7.65;6.40;;;12.20;39.10;;;;;;5016909;28;20044;-81
2021/04/25 02:08:19;;;;;;;9.55;6.80;;;12.20;39.10;;;;;;5033872;28;20063;-82
2021/04/25 02:10:46;;;;;;;9.05;6.53;;;12.20;39.20;;;;;;5034867;28;20132;-81
2021/04/25 02:13:13;;;;;;;8.23;6.50;;;12.10;39.10;;;;;;5034319;28;20393;-81
2021/04/25 02:15:39;;;;;;;7.32;6.63;;;12.00;39.00;;;;;;5034281;28;20083;-81
2021/04/25 02:18:06;;;;;;;9.88;6.53;;;12.00;39.00;;;;;;5034080;28;20048;-81
2021/04/25 02:20:33;;;;;;;6.45;5.75;;;12.00;39.10;;;;;;5034578;28;20029;-82
2021/04/25 02:23:00;;;;;;;8.13;6.22;;;12.00;39.10;;;;;;5013076;28;20589;-82
2021/04/25 02:25:26;;;;;;;13.27;6.00;;;11.90;38.90;;;;;;5032626;28;20105;-81
2021/04/25 02:27:53;;;;;;;7.82;5.93;;;11.90;39.00;;;;;;5033833;28;20503;-81
2021/04/25 02:30:23;;;;;;;7.45;6.40;;;11.90;39.10;;;;;;5032564;28;20524;-81
2021/04/25 02:32:50;;;;;;;7.65;6.65;;;11.80;39.00;;;;;;5033617;28;20059;-81
2021/04/25 02:35:18;;;;;;;6.88;6.10;;;11.80;39.10;;;;;;4999648;28;20029;-81
2021/04/25 02:37:45;;;;;;;7.43;6.40;;;11.80;39.10;;;;;;5016189;28;20021;-81
2021/04/25 02:40:14;;;;;;;8.98;6.18;;;11.70;39.00;;;;;;5015858;28;20045;-81
2021/04/25 02:42:42;;;;;;;11.32;7.13;;;11.70;39.00;;;;;;4995990;28;20018;-82
2021/04/25 02:45:15;;;;;;;6.35;5.68;;;11.70;39.10;;;;;;5030041;28;20029;-81
2021/04/25 02:47:53;;;;;;;9.45;6.60;;;11.60;39.00;;;;;;5026108;28;20032;-81
2021/04/25 02:50:22;;;;;;;7.10;5.97;;;11.60;39.10;;;;;;5033442;28;20037;-80
2021/04/25 02:52:48;;;;;;;7.28;6.03;;;11.60;39.00;;;;;;5032485;28;20536;-81
2021/04/25 02:55:15;;;;;;;6.25;5.63;;;11.50;38.90;;;;;;5033538;28;20242;-81
2021/04/25 02:57:41;;;;;;;6.85;5.95;;;11.50;39.00;;;;;;5033230;28;20037;-80
2021/04/25 03:00:14;;;;;;;8.18;5.78;;;11.50;39.10;;;;;;5032225;28;20485;-81
2021/04/25 03:02:40;;;;;;;7.23;5.93;;;11.40;39.00;;;;;;5025767;28;20030;-81
2021/04/25 03:05:07;;;;;;;8.57;6.55;;;11.40;39.00;;;;;;5033447;28;20041;-81
2021/04/25 03:07:33;;;;;;;6.70;5.32;;;11.40;39.00;;;;;;5033370;28;20112;-81
2021/04/25 03:09:59;;;;;;;7.25;6.25;;;11.30;38.90;;;;;;5032824;28;20128;-81
2021/04/25 03:12:26;;;;;;;12.73;6.68;;;11.30;39.00;;;;;;5033273;28;20064;-81
2021/04/25 03:14:52;;;;;;;7.15;6.22;;;11.30;39.00;;;;;;5033022;28;20037;-81
2021/04/25 03:17:18;;;;;;;8.13;6.32;;;11.20;38.90;;;;;;5033466;28;20041;-81
2021/04/25 03:19:43;;;;;;;7.05;5.88;;;11.20;39.00;;;;;;5032708;28;20029;-81
2021/04/25 03:22:09;;;;;;;8.05;6.55;;;11.10;38.80;;;;;;5033272;28;20025;-80
2021/04/25 03:24:35;;;;;;;9.77;6.05;;;11.10;38.90;;;;;;5033208;28;20037;-80
2021/04/25 03:27:01;;;;;;;6.85;6.20;;;11.10;38.90;;;;;;5015100;28;20029;-80
2021/04/25 03:29:28;;;;;;;6.78;5.80;;;11.00;38.80;;;;;;5032706;28;20029;-80
2021/04/25 03:31:54;;;;;;;6.55;5.05;;;11.00;38.80;;;;;;5033238;28;20060;-80
2021/04/25 03:34:20;;;;;;;6.22;5.43;;;11.00;38.90;;;;;;5032945;28;20025;-80
2021/04/25 03:36:46;;;;;;;8.18;6.32;;;10.90;38.80;;;;;;5032626;28;20112;-81
2021/04/25 03:39:13;;;;;;;7.88;5.60;;;10.90;38.90;;;;;;5032361;28;20480;-81
2021/04/25 03:41:40;;;;;;;8.13;5.65;;;10.90;38.90;;;;;;5007164;28;20029;-81
2021/04/25 03:44:06;;;;;;;6.00;4.97;;;10.80;38.80;;;;;;5032796;28;20480;-81
2021/04/25 03:46:32;;;;;;;6.65;5.90;;;10.80;38.80;;;;;;5031380;28;20033;-80
2021/04/25 03:48:58;;;;;;;11.70;5.78;;;10.80;38.90;;;;;;5032554;28;20531;-81
2021/04/25 03:51:24;;;;;;;7.40;5.53;;;10.70;38.80;;;;;;5032268;28;20041;-81
2021/04/25 03:53:50;;;;;;;7.32;5.95;;;10.70;38.90;;;;;;5032764;28;20033;-84
2021/04/25 03:56:16;;;;;;;5.85;5.07;;;10.70;38.90;;;;;;5032701;28;20484;-84
2021/04/25 03:58:42;;;;;;;8.30;6.70;;;10.60;38.70;;;;;;5023583;28;20515;-82
2021/04/25 04:01:08;;;;;;;8.75;5.53;;;10.60;38.80;;;;;;5032504;28;20034;-82
2021/04/25 04:03:34;;;;;;;7.40;6.20;;;10.60;38.90;;;;;;5031364;28;20033;-81
2021/04/25 04:06:00;;;;;;;5.80;5.15;;;10.50;38.70;;;;;;5032266;28;20079;-82
2021/04/25 04:08:26;;;;;;;7.07;6.07;;;10.50;38.70;;;;;;5032197;28;20404;-82
2021/04/25 04:10:52;;;;;;;6.65;5.25;;;10.50;38.80;;;;;;5031879;28;20456;-81
2021/04/25 04:13:18;;;;;;;6.32;5.40;;;10.50;38.80;;;;;;5014217;28;20481;-82
2021/04/25 04:15:44;;;;;;;6.68;5.38;;;10.40;38.70;;;;;;5031031;28;20036;-84
2021/04/25 04:18:10;;;;;;;6.80;5.72;;;10.40;38.70;;;;;;5013987;28;20124;-82
2021/04/25 04:20:36;;;;;;;6.30;5.32;;;10.40;38.80;;;;;;4998257;28;20029;-83
2021/04/25 04:23:03;;;;;;;6.57;5.88;;;10.30;38.70;;;;;;5014582;28;20029;-83
2021/04/25 04:25:29;;;;;;;7.20;5.40;;;10.30;38.70;;;;;;5030953;28;20072;-82
2021/04/25 04:27:56;;;;;;;7.35;5.63;;;10.30;38.80;;;;;;5014558;28;20061;-82
2021/04/25 04:30:22;;;;;;;9.25;5.50;;;10.20;38.70;;;;;;5031822;28;20041;-81
2021/04/25 04:32:48;;;;;;;5.93;5.07;;;10.20;38.70;;;;;;5031997;28;20051;-81
2021/04/25 04:35:14;;;;;;;7.20;6.50;;;10.20;38.80;;;;;;5030103;28;20017;-82
2021/04/25 04:37:39;;;;;;;8.05;6.18;;;10.20;38.90;;;;;;5014280;28;20056;-81
2021/04/25 04:40:06;;;;;;;8.52;6.18;;;10.10;38.70;;;;;;5031794;28;20069;-81
2021/04/25 04:42:33;;;;;;;6.35;5.57;;;10.10;38.70;;;;;;5014037;28;20034;-81
2021/04/25 04:44:59;;;;;;;7.22;5.78;;;10.10;38.80;;;;;;5031625;28;20132;-81
2021/04/25 04:47:25;;;;;;;9.45;6.03;;;10.10;38.90;;;;;;5027105;28;20045;-81
2021/04/25 04:49:50;;;;;;;6.35;5.63;;;10.00;38.70;;;;;;5008650;28;20041;-81
2021/04/25 04:52:16;;;;;;;7.05;5.45;;;10.00;38.80;;;;;;5008046;28;20038;-81
2021/04/25 04:54:44;;;;;;;5.47;4.97;;;10.00;38.80;;;;;;5009065;28;20030;-81
2021/04/25 04:57:12;;;;;;;7.22;5.25;;;10.00;38.90;;;;;;5008714;28;20030;-81
2021/04/25 04:59:38;;;;;;;6.15;5.47;;;10.00;38.90;;;;;;5025781;28;20477;-81
2021/04/25 05:02:04;;;;;;;7.80;5.75;;;10.00;39.00;;;;;;5010311;28;20063;-80
2021/04/25 05:04:30;;;;;;;6.55;5.32;;;9.90;38.80;;;;;;4988184;28;20093;-81
2021/04/25 05:06:57;;;;;;;7.88;5.78;;;9.90;38.80;;;;;;5007750;28;20034;-82
2021/04/25 05:09:23;;;;;;;8.23;5.35;;;9.90;38.90;;;;;;5016630;28;20128;-81
2021/04/25 05:11:49;;;;;;;6.00;5.05;;;9.90;39.00;;;;;;5026824;28;20457;-81
2021/04/25 05:14:15;;;;;;;8.73;6.40;;;9.90;39.00;;;;;;5027351;28;20095;-81
2021/04/25 05:16:41;;;;;;;5.70;5.07;;;9.90;39.10;;;;;;5026669;28;20053;-81
2021/04/25 05:19:07;;;;;;;7.68;5.50;;;9.90;39.10;;;;;;5026923;28;20226;-83
2021/04/25 05:21:33;;;;;;;5.97;5.38;;;9.80;38.90;;;;;;5009332;28;20060;-82
2021/04/25 05:23:59;;;;;;;6.10;5.30;;;9.80;38.90;;;;;;5029697;28;20540;-83
2021/04/25 05:26:25;;;;;;;7.90;5.88;;;9.80;38.90;;;;;;5029350;28;20116;-83
2021/04/25 05:28:51;;;;;;;8.20;5.82;;;9.80;38.90;;;;;;5030636;28;20033;-82
2021/04/25 05:31:17;;;;;;;8.00;5.75;;;9.80;39.00;;;;;;5031250;28;20434;-85
2021/04/25 05:33:43;;;;;;;6.30;4.95;;;9.80;39.10;;;;;;5029129;28;20116;-81
2021/04/25 05:36:09;;;;;;;5.97;4.47;;;9.80;39.10;;;;;;5031111;28;20515;-82
2021/04/25 05:38:35;;;;;;;6.43;5.30;;;9.80;39.20;;;;;;5030420;28;20156;-84
2021/04/25 05:41:01;;;;;;;6.05;5.35;;;9.80;39.20;;;;;;5031006;28;20040;-82
2021/04/25 05:43:26;;;;;;;7.80;6.28;;;9.80;39.20;;;;;;5030997;28;20034;-82
2021/04/25 05:45:53;;;;;;;6.82;5.45;;;9.80;39.30;;;;;;5013161;28;20072;-83
2021/04/25 05:48:18;;;;;;;6.53;5.05;;;9.80;39.30;;;;;;5030507;28;20068;-85
2021/04/25 05:50:44;;;;;;;8.70;6.10;;;9.80;39.30;;;;;;5030524;28;20096;-83
2021/04/25 05:53:10;;;;;;;6.90;5.78;;;9.90;39.50;;;;;;5030769;28;20059;-81
2021/04/25 05:55:36;;;;;;;8.27;6.38;;;9.90;39.50;;;;;;5012768;28;20029;-84
2021/04/25 05:58:03;;;;;;;7.82;6.18;;;10.00;39.70;;;;;;5031126;28;20030;-81
2021/04/25 06:00:31;;;;;;;6.45;4.75;;;10.00;39.70;;;;;;5030034;28;20025;-83
2021/04/25 06:02:57;;;;;;;7.70;5.38;;;10.10;39.90;;;;;;5029366;28;20033;-82
2021/04/25 06:05:23;;;;;;;11.70;7.55;;;10.20;40.20;;;;;;4995489;28;20393;-80
2021/04/25 06:07:52;;;;;;;12.40;7.63;;;10.20;40.20;;;;;;5012111;28;20032;-82
2021/04/25 06:10:20;;;;;;;13.73;7.70;;;10.30;40.30;;;;;;5005240;28;20034;-82
2021/04/25 06:12:48;;;;;;;10.45;6.88;;;10.30;40.10;;;;;;4995655;28;20184;-81
2021/04/25 06:15:16;;;;;;;12.88;7.28;;;10.40;40.00;;;;;;5025977;28;20196;-83
2021/04/25 06:17:42;;;;;;;11.85;8.75;;;10.40;40.00;;;;;;5008015;28;20073;-84
2021/04/25 06:20:09;;;;;;;13.73;7.35;;;10.50;40.00;;;;;;5029749;28;20505;-86
2021/04/25 06:22:35;;;;;;;15.95;7.57;;;10.50;39.90;;;;;;5022502;28;20388;-81
2021/04/25 06:25:01;;;;;;;12.23;7.80;;;10.60;39.90;;;;;;5023886;28;20033;-85
2021/04/25 06:27:27;;;;;;;12.57;7.95;;;10.70;40.00;;;;;;5009060;28;20034;-85
2021/04/25 06:29:53;;;;;;;13.20;7.75;;;10.70;39.80;;;;;;5030721;28;20127;-85
2021/04/25 06:32:19;;;;;;;13.75;7.57;;;10.90;40.00;;;;;;5029921;28;20029;-86
2021/04/25 06:34:46;;;;;;;12.20;7.30;;;11.00;39.90;;;;;;5029932;28;20048;-83
2021/04/25 06:37:12;;;;;;;14.38;8.20;;;11.10;39.90;;;;;;5029513;28;20112;-84
2021/04/25 06:39:38;;;;;;;15.38;7.95;;;11.20;39.90;;;;;;5017893;28;20038;-85
2021/04/25 06:42:04;;;;;;;15.68;7.97;;;11.30;39.80;;;;;;5017227;28;20201;-84
2021/04/25 06:44:30;;;;;;;12.13;8.13;;;11.50;39.90;;;;;;5022350;28;20029;-83
2021/04/25 06:46:57;;;;;;;13.27;7.60;;;11.60;39.90;;;;;;5011784;28;20417;-83
2021/04/25 06:49:23;;;;;;;15.68;8.60;;;11.70;39.70;;;;;;5019373;28;20030;-85
2021/04/25 06:51:49;;;;;;;11.95;7.93;;;11.90;39.90;;;;;;5009970;28;20038;-82
2021/04/25 06:54:15;;;;;;;12.15;8.45;;;12.10;39.90;;;;;;5026987;28;20052;-83
2021/04/25 06:56:42;;;;;;;12.05;7.88;;;12.30;40.00;;;;;;4994439;28;20034;-83
2021/04/25 06:59:09;;;;;;;9.88;7.20;;;12.40;39.80;;;;;;5010891;28;20033;-85
2021/04/25 07:01:35;;;;;;;12.52;6.85;;;12.60;39.80;;;;;;5018565;28;20025;-85
2021/04/25 07:04:02;;;;;;;8.70;6.85;;;12.80;39.80;;;;;;5027303;28;20243;-84
2021/04/25 07:06:28;;;;;;;12.45;7.40;;;13.00;39.80;;;;;;5028923;28;20021;-85
2021/04/25 07:08:53;;;;;;;9.38;7.13;;;13.20;39.70;;;;;;5011927;28;20026;-84
2021/04/25 07:11:20;;;;;;;10.15;6.95;;;13.40;39.60;;;;;;4995239;28;20037;-82
2021/04/25 07:13:45;;;;;;;12.13;7.63;;;13.60;39.50;;;;;;5028061;28;20543;-83
2021/04/25 07:16:12;;;;;;;11.57;6.88;;;13.80;39.50;;;;;;4995215;28;20041;-81
2021/04/25 07:18:37;;;;;;;14.30;6.95;;;13.90;39.30;;;;;;5021916;28;20447;-82
2021/04/25 07:21:04;;;;;;;15.48;7.47;;;14.20;39.40;;;;;;4993381;28;20029;-81
2021/04/25 07:23:30;;;;;;;17.48;7.93;;;14.30;39.10;;;;;;4994384;28;20045;-81
2021/04/25 07:25:56;;;;;;;11.20;7.55;;;14.40;38.80;;;;;;4973455;28;20261;-82
2021/04/25 07:28:48;;;;;;;12.02;8.25;;;14.60;38.70;;;;;;4999712;28;20034;-87
2021/04/25 07:31:50;;;;;;;8.27;6.90;;;14.70;38.20;;;;;;5007620;28;20042;-94
2021/04/25 07:34:57;;;;;;;12.65;6.82;;;14.90;38.30;;;;;;5002963;28;20029;-84
2021/04/25 07:37:22;;;;;;;10.82;7.13;;;15.00;38.40;;;;;;5023167;28;20200;-85
2021/04/25 07:39:48;;;;;;;9.32;6.88;;;15.10;38.20;;;;;;5025039;28;20442;-83
2021/04/25 07:42:15;;;;;;;11.77;7.88;;;15.30;38.10;;;;;;5024367;28;20029;-83
2021/04/25 07:44:41;;;;;;;12.38;7.07;;;15.40;38.00;;;;;;4999616;28;20366;-83
2021/04/25 07:47:08;;;;;;;8.90;6.05;;;15.50;37.80;;;;;;5024038;28;20472;-87
2021/04/25 07:49:34;;;;;;;9.95;6.97;;;15.60;37.60;;;;;;5010836;28;20033;-83
2021/04/25 07:52:00;;;;;;;7.72;6.32;;;15.70;37.60;;;;;;5021014;28;20370;-83
2021/04/25 07:54:27;;;;;;;11.07;7.00;;;15.70;37.20;;;;;;5002760;28;20029;-82
2021/04/25 07:56:54;;;;;;;9.32;7.28;;;15.80;37.20;;;;;;5003540;28;20030;-82
2021/04/25 07:59:20;;;;;;;13.60;7.82;;;15.90;37.00;;;;;;4981712;28;20477;-83
2021/04/25 08:01:46;;;;;;;12.07;7.30;;;15.90;36.90;;;;;;4993518;28;20033;-83
2021/04/25 08:04:12;;;;;;;9.23;7.07;;;16.00;36.80;;;;;;5009685;28;20109;-81
2021/04/25 08:06:38;;;;;;;9.70;7.00;;;16.00;37.20;;;;;;5010117;28;20052;-81
2021/04/25 08:09:05;;;;;;;9.25;6.72;;;16.10;36.60;;;;;;5020739;28;20026;-83
2021/04/25 08:11:31;;;;;;;9.65;6.72;;;16.20;36.60;;;;;;5008659;28;20071;-81
2021/04/25 08:13:57;;;;;;;11.23;7.30;;;16.20;36.40;;;;;;5021895;28;20121;-83
2021/04/25 08:16:24;;;;;;;10.05;6.57;;;16.30;36.40;;;;;;5002880;28;20046;-84
2021/04/25 08:18:49;;;;;;;16.00;7.25;;;16.30;36.20;;;;;;5026195;28;20088;-84
2021/04/25 08:21:15;;;;;;;8.95;6.70;;;16.40;36.20;;;;;;5025444;28;20056;-81
2021/04/25 08:23:41;;;;;;;13.13;7.40;;;16.40;36.10;;;;;;5007557;28;20021;-82
2021/04/25 08:26:07;;;;;;;9.32;7.03;;;16.40;35.80;;;;;;5025632;28;20032;-81
2021/04/25 08:28:34;;;;;;;9.80;6.68;;;16.40;35.60;;;;;;5007506;28;20072;-83
2021/04/25 08:31:00;;;;;;;11.50;7.25;;;16.40;35.50;;;;;;5007587;28;20141;-83
2021/04/25 08:33:27;;;;;;;11.65;7.10;;;16.40;35.30;;;;;;5005339;28;20270;-82
2021/04/25 08:35:53;;;;;;;14.85;7.97;;;16.30;35.10;;;;;;4990116;28;20062;-83
2021/04/25 08:38:20;;;;;;;11.90;7.45;;;16.20;34.80;;;;;;5024678;28;20032;-83
2021/04/25 08:40:46;;;;;;;11.90;6.75;;;16.20;34.80;;;;;;5009309;28;20120;-86
2021/04/25 08:43:15;;;;;;;11.25;6.80;;;16.10;34.60;;;;;;5007837;28;20116;-88
2021/04/25 08:45:46;;;;;;;7.78;6.88;;;15.90;34.30;;;;;;5002217;28;20040;-88
2021/04/25 08:48:14;;;;;;;10.63;6.60;;;15.70;34.00;;;;;;5006010;28;20326;-85
2021/04/25 08:50:42;;;;;;;8.65;6.55;;;15.50;33.90;;;;;;5007543;28;20049;-86
2021/04/25 08:53:11;;;;;;;8.43;6.15;;;15.40;34.00;;;;;;4981783;28;20375;-84
2021/04/25 08:55:37;;;;;;;10.30;6.60;;;15.10;33.70;;;;;;4990155;28;20041;-84
2021/04/25 08:58:05;;;;;;;8.80;6.43;;;15.00;33.90;;;;;;5001235;28;20025;-84
2021/04/25 09:00:31;;;;;;;10.02;6.88;;;14.80;33.90;;;;;;5014674;28;20048;-81
2021/04/25 09:02:58;;;;;;;9.65;6.43;;;14.60;33.80;;;;;;4993581;28;20356;-85
2021/04/25 09:05:24;;;;;;;7.97;6.75;;;14.50;33.80;;;;;;5009114;28;20346;-83
2021/04/25 09:08:01;;;;;;;8.93;6.20;;;14.50;33.90;;;;;;5003074;28;20034;-85
2021/04/25 09:10:36;;;;;;;9.52;5.47;;;14.30;33.60;;;;;;4989941;28;20069;-87
2021/04/25 09:13:24;;;;;;;11.07;6.10;;;14.30;33.80;;;;;;4993733;28;20054;-86
2021/04/25 09:16:10;;;;;;;8.65;5.65;;;14.20;33.80;;;;;;5003819;28;20397;-86
2021/04/25 09:18:43;;;;;;;10.07;5.85;;;14.10;33.70;;;;;;4991838;28;20049;-90
2021/04/25 09:21:57;;;;;;;9.45;6.80;;;14.10;33.80;;;;;;4991775;28;20030;-92
2021/04/25 09:25:19;;;;;;;8.05;5.82;;;14.00;33.70;;;;;;4974505;28;20034;-88
2021/04/25 09:28:58;;;;;;;9.93;6.30;;;14.00;33.80;;;;;;5008445;28;20041;-85
2021/04/25 09:31:40;;;;;;;11.52;6.00;;;14.00;33.80;;;;;;4991403;28;20564;-86
2021/04/25 09:34:55;;;;;;;10.43;6.32;;;13.90;33.70;;;;;;5007451;28;20038;-86
2021/04/25 09:37:35;;;;;;;11.48;6.20;;;13.90;33.90;;;;;;5005177;28;20185;-82
2021/04/25 09:40:13;;;;;;;13.05;5.80;;;13.90;33.90;;;;;;4969751;28;20039;-81
2021/04/25 09:42:55;;;;;;;8.63;5.78;;;13.90;34.00;;;;;;4988271;28;20493;-82
2021/04/25 09:45:26;;;;;;;9.57;5.95;;;13.90;33.90;;;;;;4988589;28;20172;-84
2021/04/25 09:51:42;;;;;;;7.82;5.72;;;13.90;33.90;;;;;;4947287;29;20043;-83
2021/04/25 09:54:09;;;;;;;15.50;7.88;;;14.00;34.10;;;;;;4971165;28;20133;-81
2021/04/25 09:57:22;;;;;;;10.50;5.72;;;14.00;34.10;;;;;;4987502;28;20080;-90
2021/04/25 10:06:00;;;;;;;9.65;6.35;;;14.10;34.30;;;;;;4968725;28;20340;-88
2021/04/25 10:10:13;;;;;;;5.68;5.00;;;14.00;34.10;;;;;;4932263;29;20553;-87
2021/04/25 10:13:49;;;;;;;8.40;6.00;;;14.10;34.80;;;;;;4937634;29;20042;-86
2021/04/25 10:18:15;;;;;;;12.85;5.65;;;14.00;34.00;;;;;;4967304;28;20105;-86
2021/04/25 10:30:52;;;;;;;7.78;5.47;;;14.10;33.70;;;;;;4932434;29;20038;-89
2021/04/25 10:38:51;;;;;;;7.70;5.55;;;14.20;33.90;;;;;;4990333;28;20504;-83
2021/04/25 10:41:24;;;;;;;6.80;4.93;;;14.20;33.90;;;;;;4988964;28;20129;-84
2021/04/25 10:44:03;;;;;;;7.30;4.88;;;14.30;34.00;;;;;;4987960;28;20046;-85
2021/04/25 10:51:14;;;;;;;5.95;4.93;;;14.40;33.90;;;;;;4981701;28;20054;-89
2021/04/25 10:54:08;;;;;;;9.13;5.20;;;14.40;33.90;;;;;;4968447;28;20302;-85
2021/04/25 10:56:48;;;;;;;6.28;4.78;;;14.40;33.90;;;;;;4973572;28;20413;-86
2021/04/25 11:00:11;;;;;;;7.70;5.18;;;14.50;34.10;;;;;;4975077;28;20091;-88
2021/04/25 11:04:12;;;;;;;6.45;5.00;;;14.50;34.20;;;;;;5007118;28;20046;-88
2021/04/25 11:07:48;;;;;;;5.40;4.82;;;14.60;34.30;;;;;;4999809;28;20611;-81
2021/04/25 11:10:55;;;;;;;8.75;5.80;;;14.60;34.20;;;;;;4973809;28;20061;-84
2021/04/25 11:13:40;;;;;;;9.93;5.53;;;14.70;34.40;;;;;;5005544;28;20028;-85
2021/04/25 11:16:09;;;;;;;8.45;5.55;;;14.70;34.30;;;;;;5009269;28;20049;-85
2021/04/25 11:19:06;;;;;;;9.57;4.65;;;14.80;34.50;;;;;;4985930;28;20054;-84
2021/04/25 11:21:35;;;;;;;7.57;5.45;;;14.80;34.40;;;;;;4999853;28;20042;-88
2021/04/25 11:24:05;;;;;;;6.88;5.50;;;14.80;34.40;;;;;;4999544;28;20058;-89
2021/04/25 11:26:35;;;;;;;5.93;5.00;;;14.90;34.60;;;;;;5015343;28;20064;-86
2021/04/25 11:29:15;;;;;;;8.70;5.53;;;14.90;34.50;;;;;;5035231;28;20040;-86
2021/04/25 11:31:47;;;;;;;8.23;5.50;;;15.00;34.50;;;;;;5026985;28;20041;-83
2021/04/25 11:37:05;;;;;;;6.47;5.10;;;15.10;34.50;;;;;;5028632;28;20092;-83
2021/04/25 11:39:44;;;;;;;7.38;4.78;;;15.20;34.70;;;;;;5011923;28;20043;-81
2021/04/25 11:42:12;;;;;;;7.93;4.93;;;15.20;34.60;;;;;;5013378;28;20083;-82
2021/04/25 11:44:43;;;;;;;6.95;5.15;;;15.30;34.90;;;;;;5011149;28;20202;-81
2021/04/25 11:47:15;;;;;;;9.15;6.40;;;15.30;34.70;;;;;;5010735;28;20407;-82
2021/04/25 11:49:47;;;;;;;7.45;5.95;;;15.40;34.80;;;;;;5010444;28;20124;-83
2021/04/25 11:52:18;;;;;;;6.70;5.40;;;15.40;34.60;;;;;;4994291;28;20033;-83
2021/04/25 11:55:09;;;;;;;6.82;5.93;;;15.50;34.80;;;;;;5010303;28;20136;-86
2021/04/25 11:58:20;;;;;;;7.20;6.00;;;15.50;34.70;;;;;;5010164;28;20041;-85
2021/04/25 12:00:51;;;;;;;7.07;6.00;;;15.60;34.80;;;;;;4994575;28;20040;-83
2021/04/25 12:03:20;;;;;;;9.57;5.72;;;15.60;34.80;;;;;;5026841;28;20114;-87
2021/04/25 12:06:41;;;;;;;7.00;5.40;;;15.70;35.00;;;;;;5011659;28;20491;-85
2021/04/25 12:10:16;;;;;;;6.70;4.80;;;15.70;34.80;;;;;;4999978;28;20025;-89
2021/04/25 12:13:55;;;;;;;9.68;4.85;;;15.90;35.00;;;;;;5012551;28;20041;-84
2021/04/25 12:21:14;;;;;;;5.65;4.15;;;16.00;35.10;;;;;;4962117;28;20509;-83
2021/04/25 12:23:51;;;;;;;6.95;4.93;;;16.10;35.20;;;;;;4998034;28;20076;-84
2021/04/25 12:26:20;;;;;;;8.73;4.00;;;16.10;35.00;;;;;;4990145;28;20029;-84
2021/04/25 12:28:55;;;;;;;6.55;4.28;;;16.20;35.10;;;;;;4989743;28;20111;-82
2021/04/25 12:31:24;;;;;;;5.93;4.03;;;16.20;35.00;;;;;;5003593;28;20061;-84
2021/04/25 12:33:54;;;;;;;4.50;3.72;;;16.20;35.00;;;;;;5005195;28;20069;-86
2021/04/25 12:36:52;;;;;;;4.93;4.20;;;16.30;35.00;;;;;;4989543;28;20029;-83
2021/04/25 12:39:21;;;;;;;6.75;4.22;;;16.40;35.10;;;;;;4989085;28;20158;-85
2021/04/25 12:41:49;;;;;;;7.40;5.28;;;16.50;35.30;;;;;;4987540;28;20077;-86
2021/04/25 12:47:34;;;;;;;6.45;4.60;;;16.60;35.20;;;;;;4988677;28;20440;-85
2021/04/25 12:50:29;;;;;;;7.22;4.90;;;16.70;35.40;;;;;;5010170;28;20073;-83
2021/04/25 12:52:56;;;;;;;6.43;4.60;;;16.70;35.20;;;;;;4992464;28;20408;-84
2021/04/25 12:55:32;;;;;;;5.85;5.05;;;16.80;35.40;;;;;;5024327;28;20550;-83
2021/04/25 12:58:39;;;;;;;7.68;4.68;;;16.80;35.20;;;;;;4993096;28;20033;-83
2021/04/25 13:01:28;;;;;;;7.85;4.60;;;16.90;35.20;;;;;;5011191;28;20065;-83
2021/04/25 13:04:36;;;;;;;4.97;4.40;;;16.90;35.10;;;;;;4956932;28;20026;-84
2021/04/25 13:07:19;;;;;;;6.57;4.55;;;17.00;35.10;;;;;;5017947;28;20046;-87
2021/04/25 13:09:54;;;;;;;7.05;4.43;;;17.10;35.30;;;;;;4999055;28;20498;-82
2021/04/25 13:12:41;;;;;;;5.30;4.65;;;17.10;35.10;;;;;;5025223;28;20128;-83
2021/04/25 13:15:10;;;;;;;6.72;4.40;;;17.20;35.30;;;;;;4994318;28;20136;-84
2021/04/25 13:17:53;;;;;;;5.68;4.00;;;17.30;35.30;;;;;;5010648;28;20198;-84
2021/04/25 13:20:39;;;;;;;6.65;4.22;;;17.30;35.10;;;;;;4994438;28;20034;-83
2021/04/25 13:23:19;;;;;;;7.05;4.90;;;17.40;35.00;;;;;;5027684;28;20211;-88
2021/04/25 13:29:41;;;;;;;7.15;4.65;;;17.50;34.80;;;;;;5027652;28;20127;-86
2021/04/25 13:32:07;;;;;;;6.60;4.25;;;17.60;35.10;;;;;;5025433;28;20317;-84
2021/04/25 13:34:33;;;;;;;7.30;4.88;;;17.60;35.00;;;;;;5009063;28;20030;-84
2021/04/25 13:36:59;;;;;;;6.30;4.25;;;17.70;35.00;;;;;;5008812;28;20059;-87
2021/04/25 13:39:25;;;;;;;6.20;4.32;;;17.80;35.10;;;;;;5009240;28;20057;-84
2021/04/25 13:41:51;;;;;;;9.40;4.50;;;17.80;34.80;;;;;;5009394;28;20080;-89
2021/04/25 13:44:18;;;;;;;6.60;4.85;;;17.90;34.90;;;;;;5014390;28;20029;-86
2021/04/25 13:50:54;;;;;;;7.07;4.50;;;18.10;35.70;;;;;;4970185;28;20109;-85
2021/04/25 13:55:13;;;;;;;7.95;4.28;;;18.20;35.10;;;;;;4931116;28;20570;-87
2021/04/25 14:16:23;;;;;;;9.73;4.35;;;18.70;35.10;;;;;;4912088;29;20062;-85
2021/04/25 14:19:36;;;;;;;6.45;4.25;;;18.90;35.40;;;;;;4915279;29;20419;-84
2021/04/25 14:22:04;;;;;;;6.72;4.57;;;19.00;35.50;;;;;;4930425;29;20134;-84